Time;durP1;ratioP1;P1;durP2;ratioP2;P2;SDS_P1;SDS_P2;PMS_P1;PMS_P2;Temp;Humidity;BMP_temperature;BMP_pressure;BME280_temperature;BME280_humidity;BME280_pressure;Samples;Min_cycle;Max_cycle;Signal;HPM_P1;HPM_P2
2024/02/11 00:00:04;;;;;;;42.30;30.13;;;;;;;;;;5113583;28;20529;-65
2024/02/11 00:02:37;;;;;;;45.63;31.60;;;;;;;;;;5113379;28;20446;-65
2024/02/11 00:05:04;;;;;;;41.07;29.93;;;;;;;;;;5113332;28;20448;-65
2024/02/11 00:07:31;;;;;;;43.33;29.93;;;;;;;;;;5113136;28;20533;-65
2024/02/11 00:09:59;;;;;;;40.20;32.03;;;;;;;;;;5113350;28;20485;-65
2024/02/11 00:12:26;;;;;;;43.97;31.20;;;;;;;;;;5113070;28;20988;-65
2024/02/11 00:14:53;;;;;;;43.50;32.40;;;;;;;;;;5113258;28;20521;-65
2024/02/11 00:17:20;;;;;;;48.00;34.07;;;;;;;;;;5113299;28;20448;-65
2024/02/11 00:19:48;;;;;;;44.10;33.60;;;;;;;;;;5113118;28;20533;-65
2024/02/11 00:22:15;;;;;;;46.80;33.37;;;;;;;;;;5113089;28;20544;-65
2024/02/11 00:24:42;;;;;;;49.93;34.13;;;;;;;;;;5113245;28;20473;-65
2024/02/11 00:27:12;;;;;;;42.37;33.90;;;;;;;;;;5113223;28;20877;-65
2024/02/11 00:29:40;;;;;;;54.27;34.83;;;;;;;;;;5113032;28;20469;-65
2024/02/11 00:32:07;;;;;;;50.10;35.00;;;;;;;;;;5112888;28;20522;-65
2024/02/11 00:34:34;;;;;;;52.57;35.47;;;;;;;;;;5112921;28;20448;-65
2024/02/11 00:37:03;;;;;;;52.77;35.77;;;;;;;;;;5113123;28;20445;-65
2024/02/11 00:39:30;;;;;;;54.47;36.33;;;;;;;;;;5113040;28;20499;-65
2024/02/11 00:41:58;;;;;;;55.80;34.33;;;;;;;;;;5112849;28;20454;-65
2024/02/11 00:44:25;;;;;;;59.43;37.30;;;;;;;;;;5113003;28;20450;-65
2024/02/11 00:46:52;;;;;;;54.93;38.23;;;;;;;;;;5112873;28;20525;-65
2024/02/11 00:49:19;;;;;;;54.47;37.20;;;;;;;;;;5115410;28;20524;-65
2024/02/11 00:51:48;;;;;;;54.40;36.23;;;;;;;;;;5116908;28;21008;-65
2024/02/11 00:54:16;;;;;;;54.03;36.63;;;;;;;;;;5116722;28;20528;-65
2024/02/11 00:56:43;;;;;;;55.87;37.13;;;;;;;;;;5116655;28;20451;-65
2024/02/11 00:59:10;;;;;;;57.27;38.80;;;;;;;;;;5116495;28;21005;-65
2024/02/11 01:01:39;;;;;;;57.87;38.27;;;;;;;;;;5116444;28;20458;-65
2024/02/11 01:04:07;;;;;;;53.60;37.77;;;;;;;;;;5116644;28;20450;-65
2024/02/11 01:06:33;;;;;;;55.77;37.40;;;;;;;;;;5116545;28;20642;-65
2024/02/11 01:09:03;;;;;;;56.93;36.60;;;;;;;;;;5116499;28;20438;-65
2024/02/11 01:11:31;;;;;;;52.73;37.13;;;;;;;;;;5116239;28;20477;-65
2024/02/11 01:13:59;;;;;;;54.27;37.63;;;;;;;;;;5116340;28;20528;-65
2024/02/11 01:16:26;;;;;;;58.13;37.03;;;;;;;;;;5116196;28;20517;-65
2024/02/11 01:18:53;;;;;;;57.07;37.20;;;;;;;;;;5116351;28;20491;-66
2024/02/11 01:21:22;;;;;;;54.23;36.63;;;;;;;;;;5116269;28;20532;-65
2024/02/11 01:23:49;;;;;;;53.93;35.30;;;;;;;;;;5116158;28;20444;-65
2024/02/11 01:26:16;;;;;;;57.47;37.93;;;;;;;;;;5116286;28;20475;-65
2024/02/11 01:28:44;;;;;;;58.83;36.37;;;;;;;;;;5115870;28;20438;-65
2024/02/11 01:31:11;;;;;;;54.93;36.67;;;;;;;;;;5116039;28;20532;-65
2024/02/11 01:33:38;;;;;;;58.73;37.03;;;;;;;;;;5115770;28;20470;-65
2024/02/11 01:36:05;;;;;;;65.03;39.33;;;;;;;;;;5115990;28;20532;-65
2024/02/11 01:38:32;;;;;;;61.80;37.87;;;;;;;;;;5116134;28;20469;-65
2024/02/11 01:41:00;;;;;;;58.33;37.07;;;;;;;;;;5115678;28;20533;-65
2024/02/11 01:43:26;;;;;;;64.60;37.40;;;;;;;;;;5115591;28;20445;-66
2024/02/11 01:45:55;;;;;;;59.70;37.43;;;;;;;;;;5115835;28;20485;-65
2024/02/11 01:48:22;;;;;;;63.80;39.17;;;;;;;;;;5115743;28;20537;-65
2024/02/11 01:50:52;;;;;;;68.33;41.50;;;;;;;;;;5115539;28;20481;-65
2024/02/11 01:53:20;;;;;;;65.87;38.23;;;;;;;;;;5115566;28;20438;-65
2024/02/11 01:55:47;;;;;;;68.77;40.80;;;;;;;;;;5115343;28;20548;-65
2024/02/11 01:58:15;;;;;;;67.93;39.27;;;;;;;;;;5115525;28;20484;-65
2024/02/11 02:00:42;;;;;;;63.67;39.30;;;;;;;;;;5115205;28;20448;-65
2024/02/11 02:03:10;;;;;;;62.70;39.97;;;;;;;;;;5115428;28;20548;-65
2024/02/11 02:05:38;;;;;;;68.70;38.93;;;;;;;;;;5115341;28;20881;-65
2024/02/11 02:08:08;;;;;;;60.33;39.83;;;;;;;;;;5115336;28;20445;-65
2024/02/11 02:10:35;;;;;;;62.53;37.63;;;;;;;;;;5115107;28;20509;-65
2024/02/11 02:13:02;;;;;;;67.13;40.90;;;;;;;;;;5115315;28;20442;-65
2024/02/11 02:15:29;;;;;;;65.10;40.20;;;;;;;;;;5115039;28;20452;-65
2024/02/11 02:17:56;;;;;;;65.47;38.43;;;;;;;;;;5115183;28;20865;-66
2024/02/11 02:20:25;;;;;;;63.00;38.97;;;;;;;;;;5114936;28;20536;-65
2024/02/11 02:22:53;;;;;;;61.90;38.13;;;;;;;;;;5114866;28;20534;-65
2024/02/11 02:25:20;;;;;;;65.63;38.57;;;;;;;;;;5115131;28;20533;-65
2024/02/11 02:27:47;;;;;;;68.23;40.80;;;;;;;;;;5114904;28;20866;-65
2024/02/11 02:30:14;;;;;;;73.20;42.10;;;;;;;;;;5114651;28;20961;-65
2024/02/11 02:32:41;;;;;;;59.20;36.93;;;;;;;;;;5114620;28;20465;-65
2024/02/11 02:35:08;;;;;;;69.13;39.67;;;;;;;;;;5114785;28;20872;-65
2024/02/11 02:37:35;;;;;;;59.60;38.03;;;;;;;;;;5114496;28;20600;-65
2024/02/11 02:40:04;;;;;;;65.03;39.30;;;;;;;;;;5114752;28;20481;-65
2024/02/11 02:42:31;;;;;;;61.73;37.67;;;;;;;;;;5114700;28;20452;-65
2024/02/11 02:44:57;;;;;;;56.93;37.20;;;;;;;;;;5114584;28;20532;-65
2024/02/11 02:47:24;;;;;;;67.40;38.90;;;;;;;;;;5114478;28;20792;-65
2024/02/11 02:49:51;;;;;;;65.30;38.57;;;;;;;;;;5114269;28;20448;-66
2024/02/11 02:52:18;;;;;;;63.77;39.00;;;;;;;;;;5114322;28;21024;-65
2024/02/11 02:54:46;;;;;;;59.07;38.80;;;;;;;;;;5114462;28;20437;-65
2024/02/11 02:57:15;;;;;;;53.50;35.57;;;;;;;;;;5114426;28;20452;-65
2024/02/11 02:59:42;;;;;;;63.23;38.20;;;;;;;;;;5114226;28;21008;-65
2024/02/11 03:02:12;;;;;;;63.37;37.70;;;;;;;;;;5114178;28;20446;-65
2024/02/11 03:04:40;;;;;;;56.43;37.07;;;;;;;;;;5114143;28;20488;-65
2024/02/11 03:07:07;;;;;;;63.63;38.00;;;;;;;;;;5114299;28;20816;-65
2024/02/11 03:09:34;;;;;;;59.73;38.37;;;;;;;;;;5114245;28;20438;-65
2024/02/11 03:12:01;;;;;;;61.80;37.20;;;;;;;;;;5113210;28;20898;-65
2024/02/11 03:14:30;;;;;;;58.07;36.60;;;;;;;;;;5113937;28;20532;-65
2024/02/11 03:16:57;;;;;;;57.77;35.27;;;;;;;;;;5113857;28;20506;-65
2024/02/11 03:19:26;;;;;;;59.23;36.43;;;;;;;;;;5113775;28;20532;-65
2024/02/11 03:21:53;;;;;;;52.57;36.47;;;;;;;;;;5114012;28;20782;-65
2024/02/11 03:24:20;;;;;;;58.30;35.33;;;;;;;;;;5113968;28;20476;-65
2024/02/11 03:26:47;;;;;;;58.87;36.00;;;;;;;;;;5113869;28;20953;-65
2024/02/11 03:29:14;;;;;;;55.60;35.37;;;;;;;;;;5113795;28;20446;-65
2024/02/11 03:31:42;;;;;;;55.33;34.07;;;;;;;;;;5113512;28;20891;-65
2024/02/11 03:34:09;;;;;;;56.93;35.43;;;;;;;;;;5113493;28;21057;-65
2024/02/11 03:36:36;;;;;;;53.17;34.90;;;;;;;;;;5113764;28;20536;-65
2024/02/11 03:39:08;;;;;;;57.10;33.57;;;;;;;;;;5113610;28;20468;-65
2024/02/11 03:41:35;;;;;;;57.33;34.20;;;;;;;;;;5113657;28;20441;-65
2024/02/11 03:44:03;;;;;;;55.53;35.83;;;;;;;;;;5113528;28;20444;-66
2024/02/11 03:46:30;;;;;;;65.87;38.93;;;;;;;;;;5113471;28;20499;-65
2024/02/11 03:48:59;;;;;;;55.77;34.10;;;;;;;;;;5113594;28;20525;-66
2024/02/11 03:51:26;;;;;;;57.93;34.70;;;;;;;;;;5113447;28;20534;-65
2024/02/11 03:53:53;;;;;;;57.27;35.20;;;;;;;;;;5113492;28;20846;-65
2024/02/11 03:56:22;;;;;;;59.77;36.17;;;;;;;;;;5113438;28;20479;-65
2024/02/11 03:58:49;;;;;;;52.30;34.57;;;;;;;;;;5113253;28;20445;-65
2024/02/11 04:01:16;;;;;;;57.10;36.70;;;;;;;;;;5113459;28;20441;-65
2024/02/11 04:03:44;;;;;;;64.53;35.10;;;;;;;;;;5113460;28;20801;-65
2024/02/11 04:06:12;;;;;;;57.00;34.17;;;;;;;;;;5113415;28;20564;-65
2024/02/11 04:08:41;;;;;;;57.37;35.33;;;;;;;;;;5113328;28;20442;-65
2024/02/11 04:11:09;;;;;;;58.43;34.67;;;;;;;;;;5113038;28;20473;-65
2024/02/11 04:13:36;;;;;;;56.57;35.00;;;;;;;;;;5113088;28;20441;-65
2024/02/11 04:16:11;;;;;;;59.80;34.33;;;;;;;;;;5113428;28;20944;-65
2024/02/11 04:18:38;;;;;;;52.57;32.90;;;;;;;;;;5113124;28;21019;-65
2024/02/11 04:21:05;;;;;;;64.53;34.13;;;;;;;;;;5113159;28;20449;-65
2024/02/11 04:23:34;;;;;;;54.60;35.00;;;;;;;;;;5114658;28;20491;-65
2024/02/11 04:26:04;;;;;;;53.73;33.13;;;;;;;;;;5117152;28;20452;-65
2024/02/11 04:28:35;;;;;;;62.97;32.37;;;;;;;;;;5117341;28;20455;-65
2024/02/11 04:31:08;;;;;;;66.00;35.00;;;;;;;;;;5117171;28;20956;-65
2024/02/11 04:33:36;;;;;;;60.07;33.50;;;;;;;;;;5116967;28;20480;-65
2024/02/11 04:36:04;;;;;;;55.70;31.93;;;;;;;;;;5117085;28;20446;-65
2024/02/11 04:38:31;;;;;;;58.03;33.07;;;;;;;;;;5116916;28;20456;-65
2024/02/11 04:41:02;;;;;;;57.57;32.93;;;;;;;;;;5117052;28;20452;-65
2024/02/11 04:43:29;;;;;;;58.63;33.60;;;;;;;;;;5116952;28;20441;-65
2024/02/11 04:45:56;;;;;;;55.10;33.57;;;;;;;;;;5116879;28;20530;-65
2024/02/11 04:48:24;;;;;;;51.57;31.17;;;;;;;;;;5116812;28;20446;-65
2024/02/11 04:50:51;;;;;;;56.27;33.00;;;;;;;;;;5116560;28;20476;-65
2024/02/11 04:53:20;;;;;;;54.73;33.53;;;;;;;;;;5116988;28;20532;-65
2024/02/11 04:55:50;;;;;;;57.70;33.50;;;;;;;;;;5116526;28;21011;-65
2024/02/11 04:58:19;;;;;;;56.80;34.90;;;;;;;;;;5116776;28;20859;-65
2024/02/11 05:00:47;;;;;;;58.60;35.00;;;;;;;;;;5116571;28;20794;-65
2024/02/11 05:03:17;;;;;;;53.63;32.77;;;;;;;;;;5116956;28;20473;-65
2024/02/11 05:05:44;;;;;;;57.03;33.60;;;;;;;;;;5116646;28;20446;-65
2024/02/11 05:08:16;;;;;;;51.20;31.90;;;;;;;;;;5116527;28;20536;-65
2024/02/11 05:10:44;;;;;;;58.90;34.47;;;;;;;;;;5116396;28;20490;-65
2024/02/11 05:13:11;;;;;;;55.63;33.57;;;;;;;;;;5116277;28;20474;-65
2024/02/11 05:15:40;;;;;;;53.60;33.87;;;;;;;;;;5116249;28;20532;-65
2024/02/11 05:18:09;;;;;;;48.03;33.53;;;;;;;;;;5116171;28;20442;-65
2024/02/11 05:20:37;;;;;;;59.33;34.37;;;;;;;;;;5116115;28;20452;-65
2024/02/11 05:23:09;;;;;;;62.77;34.23;;;;;;;;;;5116256;28;20813;-65
2024/02/11 05:25:36;;;;;;;60.00;35.20;;;;;;;;;;5116120;28;20437;-65
2024/02/11 05:28:04;;;;;;;51.37;31.33;;;;;;;;;;5116068;28;20533;-65
2024/02/11 05:30:32;;;;;;;58.57;32.40;;;;;;;;;;5115938;28;20438;-65
2024/02/11 05:33:02;;;;;;;52.23;32.10;;;;;;;;;;5115592;28;20991;-65
2024/02/11 05:35:30;;;;;;;62.77;34.70;;;;;;;;;;5115028;28;20534;-65
2024/02/11 05:37:58;;;;;;;61.43;34.70;;;;;;;;;;5115875;28;20445;-65
2024/02/11 05:40:26;;;;;;;61.17;34.47;;;;;;;;;;5115774;28;20532;-65
2024/02/11 05:42:53;;;;;;;59.60;34.10;;;;;;;;;;5115675;28;20450;-66
2024/02/11 05:45:21;;;;;;;57.10;33.17;;;;;;;;;;5115903;28;20442;-66
2024/02/11 05:47:48;;;;;;;53.60;31.60;;;;;;;;;;5115767;28;20832;-65
2024/02/11 05:50:17;;;;;;;56.43;33.13;;;;;;;;;;5115755;28;20528;-66
2024/02/11 05:52:44;;;;;;;53.70;33.30;;;;;;;;;;5115479;28;20976;-65
2024/02/11 05:55:16;;;;;;;54.80;34.13;;;;;;;;;;5115549;28;20782;-65
2024/02/11 05:57:43;;;;;;;60.57;34.10;;;;;;;;;;5115396;28;20544;-66
2024/02/11 06:00:12;;;;;;;48.47;30.97;;;;;;;;;;5115561;28;20446;-66
2024/02/11 06:02:40;;;;;;;51.67;32.87;;;;;;;;;;5115434;28;20442;-66
2024/02/11 06:05:07;;;;;;;56.60;33.07;;;;;;;;;;5115406;28;20441;-66
2024/02/11 06:07:37;;;;;;;56.27;33.33;;;;;;;;;;5115289;28;20452;-65
2024/02/11 06:10:04;;;;;;;61.73;34.70;;;;;;;;;;5115111;28;20477;-65
2024/02/11 06:12:31;;;;;;;56.20;30.93;;;;;;;;;;5115313;28;20487;-66
2024/02/11 06:14:58;;;;;;;57.60;33.97;;;;;;;;;;5115185;28;20446;-66
2024/02/11 06:17:25;;;;;;;54.17;32.20;;;;;;;;;;5115123;28;20442;-65
2024/02/11 06:19:53;;;;;;;66.00;35.10;;;;;;;;;;5115193;28;20459;-65
2024/02/11 06:22:21;;;;;;;64.30;35.83;;;;;;;;;;5114947;28;20446;-65
2024/02/11 06:24:51;;;;;;;59.33;34.00;;;;;;;;;;5114801;28;20446;-65
2024/02/11 06:27:18;;;;;;;52.80;32.63;;;;;;;;;;5114950;28;20442;-65
2024/02/11 06:29:45;;;;;;;56.23;32.20;;;;;;;;;;5114886;28;20446;-65
2024/02/11 06:32:12;;;;;;;53.87;33.50;;;;;;;;;;5114535;28;20512;-66
2024/02/11 06:34:40;;;;;;;64.33;35.90;;;;;;;;;;5114745;28;20441;-65
2024/02/11 06:37:07;;;;;;;61.90;33.47;;;;;;;;;;5114573;28;20456;-65
2024/02/11 06:39:34;;;;;;;64.37;34.30;;;;;;;;;;5114614;28;20442;-65
2024/02/11 06:42:03;;;;;;;63.93;35.43;;;;;;;;;;5114738;28;20528;-65
2024/02/11 06:44:30;;;;;;;58.20;34.90;;;;;;;;;;5114617;28;20534;-68
2024/02/11 06:46:57;;;;;;;58.03;34.03;;;;;;;;;;5114421;28;20446;-68
2024/02/11 06:49:25;;;;;;;67.23;34.13;;;;;;;;;;5114381;28;20471;-66
2024/02/11 06:51:52;;;;;;;59.57;33.13;;;;;;;;;;5114281;28;20513;-66
2024/02/11 06:54:19;;;;;;;57.87;33.13;;;;;;;;;;5114447;28;20442;-65
2024/02/11 06:56:47;;;;;;;55.83;32.70;;;;;;;;;;5114363;28;20446;-65
2024/02/11 06:59:16;;;;;;;62.30;32.03;;;;;;;;;;5114420;28;20441;-65
2024/02/11 07:01:42;;;;;;;59.13;33.97;;;;;;;;;;5114281;28;20484;-65
2024/02/11 07:04:12;;;;;;;54.97;31.07;;;;;;;;;;5114071;28;20536;-65
2024/02/11 07:06:43;;;;;;;55.60;33.57;;;;;;;;;;5114256;28;20445;-65
2024/02/11 07:09:11;;;;;;;57.20;33.47;;;;;;;;;;5114189;28;20448;-65
2024/02/11 07:11:39;;;;;;;57.27;33.47;;;;;;;;;;5113950;28;20491;-65
2024/02/11 07:14:06;;;;;;;61.83;33.43;;;;;;;;;;5113851;28;20445;-68
2024/02/11 07:16:35;;;;;;;51.37;32.70;;;;;;;;;;5113785;28;20452;-65
2024/02/11 07:19:03;;;;;;;61.00;32.10;;;;;;;;;;5114298;28;20438;-65
2024/02/11 07:21:31;;;;;;;59.40;32.43;;;;;;;;;;5114059;28;20449;-65
2024/02/11 07:23:58;;;;;;;60.70;32.30;;;;;;;;;;5113952;28;20477;-65
2024/02/11 07:26:25;;;;;;;55.57;31.50;;;;;;;;;;5113892;28;20437;-65
2024/02/11 07:28:53;;;;;;;63.57;35.10;;;;;;;;;;5113946;28;20437;-65
2024/02/11 07:31:20;;;;;;;64.70;32.97;;;;;;;;;;5113553;28;20608;-66
2024/02/11 07:33:49;;;;;;;57.73;31.07;;;;;;;;;;5113447;28;20482;-66
2024/02/11 07:36:17;;;;;;;58.77;33.53;;;;;;;;;;5113739;28;20449;-65
2024/02/11 07:38:46;;;;;;;54.33;30.83;;;;;;;;;;5113569;28;20441;-66
2024/02/11 07:41:13;;;;;;;58.90;33.10;;;;;;;;;;5113526;28;20441;-65
2024/02/11 07:43:40;;;;;;;54.97;31.07;;;;;;;;;;5113472;28;20887;-66
2024/02/11 07:46:07;;;;;;;59.17;32.50;;;;;;;;;;5113754;28;20528;-65
2024/02/11 07:48:34;;;;;;;59.17;33.00;;;;;;;;;;5113591;28;20446;-65
2024/02/11 07:51:02;;;;;;;50.93;29.87;;;;;;;;;;5113618;28;20524;-65
2024/02/11 07:53:29;;;;;;;56.00;32.40;;;;;;;;;;5113235;28;21072;-65
2024/02/11 07:55:56;;;;;;;49.60;30.23;;;;;;;;;;5113402;28;20453;-66
2024/02/11 07:58:23;;;;;;;58.30;32.23;;;;;;;;;;5112777;28;20850;-65
2024/02/11 08:00:50;;;;;;;55.17;31.23;;;;;;;;;;5113495;28;20465;-65
2024/02/11 08:03:19;;;;;;;61.13;32.90;;;;;;;;;;5113477;28;20541;-65
2024/02/11 08:05:46;;;;;;;53.67;30.47;;;;;;;;;;5113339;28;20448;-66
2024/02/11 08:08:14;;;;;;;53.10;29.73;;;;;;;;;;5113310;28;20442;-65
2024/02/11 08:10:41;;;;;;;51.07;30.63;;;;;;;;;;5113194;28;20453;-65
2024/02/11 08:13:08;;;;;;;50.87;29.57;;;;;;;;;;5113046;28;20556;-66
2024/02/11 08:15:36;;;;;;;58.80;31.67;;;;;;;;;;5113411;28;20491;-65
2024/02/11 08:18:04;;;;;;;53.87;30.67;;;;;;;;;;5113325;28;20442;-65
2024/02/11 08:20:31;;;;;;;50.63;29.73;;;;;;;;;;5113239;28;20442;-66
2024/02/11 08:22:58;;;;;;;57.67;31.27;;;;;;;;;;5113094;28;20437;-65
2024/02/11 08:25:26;;;;;;;51.97;30.57;;;;;;;;;;5113052;28;20474;-66
2024/02/11 08:27:53;;;;;;;53.47;31.57;;;;;;;;;;5113153;28;20877;-65
2024/02/11 08:30:22;;;;;;;57.80;30.37;;;;;;;;;;5113047;28;20450;-65
2024/02/11 08:32:49;;;;;;;57.07;33.13;;;;;;;;;;5112772;28;20893;-66
2024/02/11 08:35:16;;;;;;;58.43;32.37;;;;;;;;;;5113073;28;20441;-65
2024/02/11 08:37:43;;;;;;;59.93;32.17;;;;;;;;;;5113004;28;20441;-65
2024/02/11 08:40:12;;;;;;;56.27;31.17;;;;;;;;;;5112819;28;20801;-66
2024/02/11 08:42:40;;;;;;;63.17;32.40;;;;;;;;;;5113051;28;20441;-66
2024/02/11 08:45:08;;;;;;;61.27;33.77;;;;;;;;;;5113146;28;20465;-65
2024/02/11 08:47:35;;;;;;;60.37;32.17;;;;;;;;;;5113040;28;20449;-66
2024/02/11 08:50:04;;;;;;;63.10;33.27;;;;;;;;;;5112839;28;20949;-66
2024/02/11 08:52:31;;;;;;;56.97;32.57;;;;;;;;;;5112636;28;21049;-66
2024/02/11 08:54:58;;;;;;;64.07;30.70;;;;;;;;;;5112956;28;20847;-66
2024/02/11 08:57:26;;;;;;;64.90;32.43;;;;;;;;;;5112785;28;20533;-66
2024/02/11 08:59:54;;;;;;;58.83;33.53;;;;;;;;;;5112644;28;20952;-66
2024/02/11 09:02:25;;;;;;;54.03;31.17;;;;;;;;;;5112803;28;20449;-66
2024/02/11 09:04:53;;;;;;;58.90;32.80;;;;;;;;;;5112726;28;20532;-66
2024/02/11 09:07:22;;;;;;;54.40;31.00;;;;;;;;;;5113132;28;20503;-66
2024/02/11 09:09:49;;;;;;;54.57;31.07;;;;;;;;;;5113069;28;20446;-66
2024/02/11 09:12:16;;;;;;;56.30;29.07;;;;;;;;;;5116310;28;20477;-66
2024/02/11 09:14:43;;;;;;;52.80;30.00;;;;;;;;;;5116439;28;20865;-66
2024/02/11 09:17:12;;;;;;;62.17;33.13;;;;;;;;;;5116288;28;20540;-66
2024/02/11 09:19:39;;;;;;;57.07;29.87;;;;;;;;;;5116174;28;20525;-66
2024/02/11 09:22:07;;;;;;;58.60;32.83;;;;;;;;;;5116373;28;20465;-66
2024/02/11 09:24:34;;;;;;;59.47;29.97;;;;;;;;;;5116228;28;20551;-66
2024/02/11 09:27:01;;;;;;;49.93;30.53;;;;;;;;;;5116142;28;20469;-66
2024/02/11 09:29:28;;;;;;;43.30;28.40;;;;;;;;;;5116101;28;20438;-66
2024/02/11 09:31:55;;;;;;;50.50;28.17;;;;;;;;;;5115775;28;20520;-66
2024/02/11 09:34:23;;;;;;;47.80;29.27;;;;;;;;;;5115896;28;20477;-66
2024/02/11 09:36:51;;;;;;;52.67;30.87;;;;;;;;;;5115995;28;20474;-66
2024/02/11 09:39:18;;;;;;;50.97;30.47;;;;;;;;;;5115976;28;20461;-66
2024/02/11 09:41:45;;;;;;;56.07;30.97;;;;;;;;;;5115896;28;20445;-66
2024/02/11 09:44:14;;;;;;;53.43;29.40;;;;;;;;;;5115440;28;20940;-66
2024/02/11 09:46:42;;;;;;;53.47;30.80;;;;;;;;;;5115598;28;20533;-66
2024/02/11 09:49:09;;;;;;;55.13;30.57;;;;;;;;;;5115766;28;20437;-66
2024/02/11 09:51:38;;;;;;;54.10;29.80;;;;;;;;;;5115669;28;20532;-66
2024/02/11 09:54:05;;;;;;;54.30;30.70;;;;;;;;;;5115506;28;21016;-66
2024/02/11 09:56:32;;;;;;;54.57;31.10;;;;;;;;;;5115474;28;20536;-66
2024/02/11 09:58:59;;;;;;;48.67;28.90;;;;;;;;;;5115505;28;20438;-66
2024/02/11 10:01:27;;;;;;;45.93;28.70;;;;;;;;;;5115316;28;20442;-66
2024/02/11 10:03:57;;;;;;;51.47;27.77;;;;;;;;;;5115485;28;20445;-66
2024/02/11 10:06:28;;;;;;;49.33;27.53;;;;;;;;;;5115452;28;20782;-66
2024/02/11 10:08:56;;;;;;;43.53;26.63;;;;;;;;;;5115380;28;20441;-67
2024/02/11 10:11:25;;;;;;;44.47;27.60;;;;;;;;;;5115214;28;20473;-66
2024/02/11 10:13:59;;;;;;;48.57;29.67;;;;;;;;;;5114889;28;20485;-66
2024/02/11 10:16:26;;;;;;;45.60;29.03;;;;;;;;;;5115249;28;20441;-66
2024/02/11 10:18:54;;;;;;;44.67;28.57;;;;;;;;;;5115028;28;20532;-66
2024/02/11 10:21:20;;;;;;;45.03;27.80;;;;;;;;;;5114567;28;20442;-66
2024/02/11 10:23:48;;;;;;;45.07;26.90;;;;;;;;;;5114908;28;20448;-66
2024/02/11 10:26:16;;;;;;;46.77;26.47;;;;;;;;;;5114787;28;20442;-66
2024/02/11 10:28:44;;;;;;;42.47;26.80;;;;;;;;;;5115025;28;20474;-66
2024/02/11 10:31:11;;;;;;;49.80;28.57;;;;;;;;;;5114838;28;20532;-66
2024/02/11 10:33:39;;;;;;;46.43;25.50;;;;;;;;;;5114472;28;20619;-66
2024/02/11 10:36:07;;;;;;;46.00;27.00;;;;;;;;;;5114708;28;20488;-66
2024/02/11 10:38:34;;;;;;;41.30;26.03;;;;;;;;;;5114650;28;20847;-66
2024/02/11 10:41:01;;;;;;;38.67;25.90;;;;;;;;;;5114510;28;20536;-66
2024/02/11 10:43:31;;;;;;;42.40;26.70;;;;;;;;;;5114728;28;20473;-66
2024/02/11 10:45:58;;;;;;;49.73;29.20;;;;;;;;;;5114645;28;20529;-66
2024/02/11 10:48:25;;;;;;;46.23;28.97;;;;;;;;;;5114552;28;20529;-66
2024/02/11 10:50:57;;;;;;;46.07;27.77;;;;;;;;;;5114488;28;20449;-66
2024/02/11 10:53:24;;;;;;;42.47;26.37;;;;;;;;;;5114189;28;20573;-66
2024/02/11 10:55:52;;;;;;;52.30;29.10;;;;;;;;;;5114521;28;20442;-66
2024/02/11 10:58:20;;;;;;;42.90;27.20;;;;;;;;;;5114336;28;20484;-66
2024/02/11 11:00:51;;;;;;;43.17;27.73;;;;;;;;;;5114374;28;20959;-66
2024/02/11 11:03:21;;;;;;;46.60;28.60;;;;;;;;;;5114367;28;20701;-66
2024/02/11 11:05:49;;;;;;;50.50;29.20;;;;;;;;;;5114100;28;20517;-66
2024/02/11 11:08:17;;;;;;;43.70;28.30;;;;;;;;;;5114297;28;20437;-66
2024/02/11 11:10:44;;;;;;;52.97;28.73;;;;;;;;;;5114138;28;20802;-66
2024/02/11 11:13:12;;;;;;;46.13;30.23;;;;;;;;;;5113957;28;20471;-66
2024/02/11 11:15:39;;;;;;;47.50;28.80;;;;;;;;;;5113906;28;20449;-66
2024/02/11 11:18:10;;;;;;;46.23;27.57;;;;;;;;;;5114026;28;20450;-66
2024/02/11 11:20:37;;;;;;;43.10;26.67;;;;;;;;;;5114123;28;20483;-66
2024/02/11 11:23:06;;;;;;;46.47;27.97;;;;;;;;;;5114063;28;20929;-66
2024/02/11 11:25:34;;;;;;;47.27;28.80;;;;;;;;;;5113914;28;20633;-66
2024/02/11 11:28:07;;;;;;;44.67;27.97;;;;;;;;;;5113832;28;20524;-66
2024/02/11 11:30:34;;;;;;;44.23;27.97;;;;;;;;;;5113770;28;20879;-66
2024/02/11 11:33:05;;;;;;;42.37;27.60;;;;;;;;;;5112564;28;20488;-66
2024/02/11 11:35:34;;;;;;;45.97;28.50;;;;;;;;;;5113855;28;20452;-66
2024/02/11 11:38:02;;;;;;;43.80;27.70;;;;;;;;;;5113704;28;20449;-66
2024/02/11 11:40:30;;;;;;;42.80;28.27;;;;;;;;;;5113643;28;20441;-66
2024/02/11 11:42:57;;;;;;;47.40;28.73;;;;;;;;;;5113543;28;20496;-66
2024/02/11 11:45:23;;;;;;;44.47;27.07;;;;;;;;;;5113594;28;20878;-66
2024/02/11 11:47:51;;;;;;;50.33;27.60;;;;;;;;;;5113698;28;20846;-66
2024/02/11 11:50:19;;;;;;;42.50;28.10;;;;;;;;;;5113685;28;20441;-66
2024/02/11 11:52:47;;;;;;;42.60;26.30;;;;;;;;;;5113403;28;20515;-66
2024/02/11 11:55:14;;;;;;;39.53;26.13;;;;;;;;;;5113429;28;20445;-66
2024/02/11 11:57:41;;;;;;;41.20;26.30;;;;;;;;;;5113355;28;20441;-66
2024/02/11 12:00:10;;;;;;;39.37;24.27;;;;;;;;;;5113232;28;20631;-66
2024/02/11 12:02:37;;;;;;;39.17;26.93;;;;;;;;;;5113452;28;20445;-66
2024/02/11 12:05:05;;;;;;;37.47;25.67;;;;;;;;;;5113488;28;20453;-66
2024/02/11 12:07:33;;;;;;;44.17;26.07;;;;;;;;;;5113307;28;20446;-66
2024/02/11 12:10:01;;;;;;;40.50;26.40;;;;;;;;;;5113308;28;20840;-66
2024/02/11 12:12:28;;;;;;;38.90;24.83;;;;;;;;;;5113185;28;20536;-66
2024/02/11 12:14:55;;;;;;;32.53;23.90;;;;;;;;;;5113360;28;20509;-66
2024/02/11 12:17:22;;;;;;;37.17;23.80;;;;;;;;;;5113107;28;20959;-66
2024/02/11 12:19:49;;;;;;;30.17;21.17;;;;;;;;;;5113339;28;20524;-66
2024/02/11 12:22:16;;;;;;;37.50;22.83;;;;;;;;;;5113275;28;20442;-66
2024/02/11 12:24:43;;;;;;;32.80;23.50;;;;;;;;;;5113128;28;20544;-66
2024/02/11 12:27:14;;;;;;;30.73;22.47;;;;;;;;;;5112971;28;21015;-66
2024/02/11 12:29:42;;;;;;;34.40;23.90;;;;;;;;;;5113225;28;20512;-66
2024/02/11 12:32:11;;;;;;;34.80;22.50;;;;;;;;;;5113070;28;20473;-66
2024/02/11 12:34:38;;;;;;;32.90;21.93;;;;;;;;;;5113065;28;20481;-65
2024/02/11 12:37:06;;;;;;;31.80;21.63;;;;;;;;;;5113173;28;20501;-65
2024/02/11 12:39:33;;;;;;;29.80;21.90;;;;;;;;;;5112752;28;20494;-65
2024/02/11 12:42:00;;;;;;;34.37;23.00;;;;;;;;;;5112919;28;20465;-65
2024/02/11 12:44:29;;;;;;;32.80;22.20;;;;;;;;;;5114535;28;20465;-65
2024/02/11 12:46:56;;;;;;;29.87;21.57;;;;;;;;;;5117021;28;20929;-65
2024/02/11 12:49:23;;;;;;;33.93;23.57;;;;;;;;;;5116902;28;20447;-65
2024/02/11 12:51:50;;;;;;;33.53;21.53;;;;;;;;;;5116758;28;20449;-65
2024/02/11 12:54:17;;;;;;;30.97;21.97;;;;;;;;;;5116536;28;20480;-65
2024/02/11 12:56:45;;;;;;;28.70;21.17;;;;;;;;;;5117000;28;20474;-65
2024/02/11 12:59:14;;;;;;;29.70;20.83;;;;;;;;;;5116523;28;20940;-65
2024/02/11 13:01:42;;;;;;;30.80;21.50;;;;;;;;;;5116455;28;21002;-65
2024/02/11 13:04:09;;;;;;;26.47;20.07;;;;;;;;;;5116470;28;20498;-65
2024/02/11 13:06:37;;;;;;;24.73;19.00;;;;;;;;;;5116379;28;20971;-65
2024/02/11 13:09:04;;;;;;;36.93;21.17;;;;;;;;;;5116584;28;20794;-65
2024/02/11 13:11:31;;;;;;;29.43;21.67;;;;;;;;;;5116392;28;20515;-65
2024/02/11 13:13:58;;;;;;;29.57;22.50;;;;;;;;;;5116282;28;20473;-65
2024/02/11 13:16:25;;;;;;;28.00;20.80;;;;;;;;;;5116218;28;20438;-65
2024/02/11 13:18:53;;;;;;;30.57;22.57;;;;;;;;;;5116133;28;20449;-65
2024/02/11 13:21:20;;;;;;;31.30;22.70;;;;;;;;;;5116100;28;20956;-65
2024/02/11 13:23:48;;;;;;;25.77;20.00;;;;;;;;;;5116239;28;20525;-65
2024/02/11 13:26:15;;;;;;;32.90;22.30;;;;;;;;;;5116143;28;20446;-65
2024/02/11 13:28:42;;;;;;;30.47;21.00;;;;;;;;;;5116018;28;20480;-65
2024/02/11 13:31:09;;;;;;;30.23;22.17;;;;;;;;;;5115957;28;20441;-65
2024/02/11 13:33:36;;;;;;;33.10;22.97;;;;;;;;;;5115553;28;20484;-65
2024/02/11 13:36:05;;;;;;;29.60;21.63;;;;;;;;;;5115768;28;20540;-65
2024/02/11 13:38:32;;;;;;;28.63;21.00;;;;;;;;;;5115914;28;20471;-65
2024/02/11 13:40:59;;;;;;;27.10;20.43;;;;;;;;;;5115721;28;20453;-65
2024/02/11 13:43:26;;;;;;;25.93;20.67;;;;;;;;;;5115823;28;20536;-65
2024/02/11 13:45:53;;;;;;;28.27;20.50;;;;;;;;;;5115690;28;20450;-65
2024/02/11 13:48:20;;;;;;;25.13;19.70;;;;;;;;;;5115495;28;20450;-65
2024/02/11 13:50:47;;;;;;;25.97;20.70;;;;;;;;;;5115761;28;20532;-65
2024/02/11 13:53:15;;;;;;;27.10;20.30;;;;;;;;;;5115616;28;20437;-65
2024/02/11 13:55:44;;;;;;;24.77;20.17;;;;;;;;;;5114635;28;20532;-65
2024/02/11 13:58:11;;;;;;;26.57;21.37;;;;;;;;;;5115540;28;20441;-65
2024/02/11 14:00:38;;;;;;;30.33;19.10;;;;;;;;;;5115357;28;20452;-65
2024/02/11 14:03:08;;;;;;;28.33;20.83;;;;;;;;;;5115253;28;20936;-65
2024/02/11 14:05:36;;;;;;;27.27;19.90;;;;;;;;;;5115655;28;20532;-65
2024/02/11 14:08:04;;;;;;;32.23;21.33;;;;;;;;;;5115441;28;20447;-66
2024/02/11 14:10:33;;;;;;;26.90;21.23;;;;;;;;;;5115320;28;20474;-66
2024/02/11 14:13:03;;;;;;;29.57;21.97;;;;;;;;;;5115232;28;20744;-66
2024/02/11 14:15:30;;;;;;;26.60;20.37;;;;;;;;;;5115060;28;20474;-65
2024/02/11 14:17:57;;;;;;;26.33;20.93;;;;;;;;;;5115394;28;20449;-66